sensor_id;sensor_type;location;lat;lon;timestamp;pressure;altitude;pressure_sealevel;temperature;humidity
2711;BME280;20721;47.402;8.550;2023-05-09T00:00:36;96398;;;16.94;68.66
2711;BME280;20721;47.402;8.550;2023-05-09T00:01:35;96398;;;16.96;68.60
2711;BME280;20721;47.402;8.550;2023-05-09T00:02:36;96400;;;16.94;68.04
2711;BME280;20721;47.402;8.550;2023-05-09T00:03:35;96400;;;16.89;68.10
2711;BME280;20721;47.402;8.550;2023-05-09T00:04:35;96404;;;16.86;68.30
2711;BME280;20721;47.402;8.550;2023-05-09T00:05:35;96398;;;16.81;68.33
2711;BME280;20721;47.402;8.550;2023-05-09T00:06:36;96398;;;16.78;68.44
2711;BME280;20721;47.402;8.550;2023-05-09T00:07:35;96395;;;16.77;68.63
2711;BME280;20721;47.402;8.550;2023-05-09T00:08:35;96397;;;16.74;68.57
2711;BME280;20721;47.402;8.550;2023-05-09T00:09:35;96396;;;16.71;68.73
2711;BME280;20721;47.402;8.550;2023-05-09T00:11:35;96395;;;16.72;68.82
2711;BME280;20721;47.402;8.550;2023-05-09T00:12:35;96398;;;16.71;68.96
2711;BME280;20721;47.402;8.550;2023-05-09T00:13:36;96394;;;16.70;69.12
2711;BME280;20721;47.402;8.550;2023-05-09T00:14:35;96395;;;16.71;69.18
2711;BME280;20721;47.402;8.550;2023-05-09T00:16:35;96394;;;16.72;69.34
2711;BME280;20721;47.402;8.550;2023-05-09T00:17:37;96391;;;16.71;69.32
2711;BME280;20721;47.402;8.550;2023-05-09T00:18:36;96390;;;16.72;69.17
2711;BME280;20721;47.402;8.550;2023-05-09T00:19:35;96388;;;16.73;69.13
2711;BME280;20721;47.402;8.550;2023-05-09T00:20:36;96387;;;16.74;69.16
2711;BME280;20721;47.402;8.550;2023-05-09T00:21:35;96384;;;16.75;68.93
2711;BME280;20721;47.402;8.550;2023-05-09T00:22:35;96386;;;16.74;68.99
2711;BME280;20721;47.402;8.550;2023-05-09T00:24:35;96386;;;16.73;68.68
2711;BME280;20721;47.402;8.550;2023-05-09T00:26:35;96387;;;16.71;68.56
2711;BME280;20721;47.402;8.550;2023-05-09T00:27:35;96384;;;16.67;68.53
2711;BME280;20721;47.402;8.550;2023-05-09T00:28:35;96385;;;16.57;68.64
2711;BME280;20721;47.402;8.550;2023-05-09T00:29:35;96383;;;16.49;68.90
2711;BME280;20721;47.402;8.550;2023-05-09T00:30:35;96381;;;16.47;68.79
2711;BME280;20721;47.402;8.550;2023-05-09T00:31:35;96384;;;16.42;68.87
2711;BME280;20721;47.402;8.550;2023-05-09T00:32:36;96381;;;16.38;68.94
2711;BME280;20721;47.402;8.550;2023-05-09T00:34:35;96379;;;16.33;68.92
2711;BME280;20721;47.402;8.550;2023-05-09T00:35:35;96383;;;16.20;69.38
2711;BME280;20721;47.402;8.550;2023-05-09T00:36:35;96378;;;16.15;69.61
2711;BME280;20721;47.402;8.550;2023-05-09T00:37:35;96375;;;16.10;69.60
2711;BME280;20721;47.402;8.550;2023-05-09T00:38:35;96373;;;15.98;70.09
2711;BME280;20721;47.402;8.550;2023-05-09T00:39:35;96371;;;15.93;70.41
2711;BME280;20721;47.402;8.550;2023-05-09T00:40:35;96370;;;15.89;70.45
2711;BME280;20721;47.402;8.550;2023-05-09T00:41:35;96368;;;15.88;70.66
2711;BME280;20721;47.402;8.550;2023-05-09T00:42:36;96365;;;15.92;70.58
2711;BME280;20721;47.402;8.550;2023-05-09T00:43:35;96365;;;15.97;70.41
2711;BME280;20721;47.402;8.550;2023-05-09T00:44:35;96366;;;16.01;70.29
2711;BME280;20721;47.402;8.550;2023-05-09T00:45:35;96368;;;16.06;70.31
2711;BME280;20721;47.402;8.550;2023-05-09T00:46:35;96368;;;16.11;70.17
2711;BME280;20721;47.402;8.550;2023-05-09T00:47:35;96364;;;16.16;70.00
2711;BME280;20721;47.402;8.550;2023-05-09T00:48:35;96363;;;16.19;70.01
2711;BME280;20721;47.402;8.550;2023-05-09T00:49:35;96363;;;16.23;70.04
2711;BME280;20721;47.402;8.550;2023-05-09T00:50:35;96361;;;16.27;69.81
2711;BME280;20721;47.402;8.550;2023-05-09T00:52:35;96357;;;16.30;69.90
2711;BME280;20721;47.402;8.550;2023-05-09T00:53:35;96359;;;16.34;69.90
2711;BME280;20721;47.402;8.550;2023-05-09T00:54:35;96356;;;16.36;69.97
2711;BME280;20721;47.402;8.550;2023-05-09T00:55:35;96354;;;16.40;69.86
2711;BME280;20721;47.402;8.550;2023-05-09T00:56:35;96358;;;16.43;69.79
2711;BME280;20721;47.402;8.550;2023-05-09T00:57:36;96354;;;16.46;69.71
2711;BME280;20721;47.402;8.550;2023-05-09T00:59:35;96357;;;16.51;69.60
2711;BME280;20721;47.402;8.550;2023-05-09T01:00:35;96355;;;16.54;69.57
2711;BME280;20721;47.402;8.550;2023-05-09T01:01:35;96354;;;16.56;69.35
2711;BME280;20721;47.402;8.550;2023-05-09T01:02:36;96353;;;16.58;69.32
2711;BME280;20721;47.402;8.550;2023-05-09T01:03:37;96351;;;16.59;69.40
2711;BME280;20721;47.402;8.550;2023-05-09T01:08:40;96357;;;16.48;69.24
2711;BME280;20721;47.402;8.550;2023-05-09T01:09:37;96351;;;16.38;69.51
2711;BME280;20721;47.402;8.550;2023-05-09T01:10:42;96350;;;16.32;69.87
2711;BME280;20721;47.402;8.550;2023-05-09T01:11:38;96354;;;16.33;70.19
2711;BME280;20721;47.402;8.550;2023-05-09T01:18:39;96338;;;16.26;70.41
2711;BME280;20721;47.402;8.550;2023-05-09T01:20:37;96340;;;16.33;70.17
2711;BME280;20721;47.402;8.550;2023-05-09T01:21:35;96338;;;16.37;70.10
2711;BME280;20721;47.402;8.550;2023-05-09T01:22:35;96334;;;16.38;70.08
2711;BME280;20721;47.402;8.550;2023-05-09T01:24:44;96333;;;16.40;69.61
2711;BME280;20721;47.402;8.550;2023-05-09T01:26:43;96326;;;16.31;69.64
2711;BME280;20721;47.402;8.550;2023-05-09T01:27:38;96325;;;16.28;69.59
2711;BME280;20721;47.402;8.550;2023-05-09T01:29:36;96322;;;16.20;69.57
2711;BME280;20721;47.402;8.550;2023-05-09T01:30:35;96324;;;16.15;69.75
2711;BME280;20721;47.402;8.550;2023-05-09T01:32:35;96320;;;16.18;69.59
2711;BME280;20721;47.402;8.550;2023-05-09T01:34:37;96319;;;16.17;69.55
2711;BME280;20721;47.402;8.550;2023-05-09T01:37:35;96320;;;16.18;69.57
2711;BME280;20721;47.402;8.550;2023-05-09T01:38:36;96321;;;16.19;69.38
2711;BME280;20721;47.402;8.550;2023-05-09T01:40:35;96320;;;16.20;69.37
2711;BME280;20721;47.402;8.550;2023-05-09T01:42:40;96316;;;16.21;69.18
2711;BME280;20721;47.402;8.550;2023-05-09T01:43:35;96322;;;16.22;69.12
2711;BME280;20721;47.402;8.550;2023-05-09T01:45:36;96316;;;16.20;69.06
2711;BME280;20721;47.402;8.550;2023-05-09T01:46:36;96314;;;16.11;68.88
2711;BME280;20721;47.402;8.550;2023-05-09T01:47:36;96314;;;16.02;69.04
2711;BME280;20721;47.402;8.550;2023-05-09T01:48:35;96313;;;16.00;69.22
2711;BME280;20721;47.402;8.550;2023-05-09T01:49:36;96309;;;15.98;69.32
2711;BME280;20721;47.402;8.550;2023-05-09T01:50:35;96309;;;16.00;69.12
2711;BME280;20721;47.402;8.550;2023-05-09T01:51:35;96308;;;15.94;69.30
2711;BME280;20721;47.402;8.550;2023-05-09T01:52:36;96307;;;15.87;69.50
2711;BME280;20721;47.402;8.550;2023-05-09T01:53:35;96304;;;15.82;69.49
2711;BME280;20721;47.402;8.550;2023-05-09T01:54:35;96302;;;15.79;70.20
2711;BME280;20721;47.402;8.550;2023-05-09T01:55:35;96299;;;15.76;70.18
2711;BME280;20721;47.402;8.550;2023-05-09T01:56:35;96302;;;15.74;70.30
2711;BME280;20721;47.402;8.550;2023-05-09T01:58:35;96307;;;15.76;70.57
2711;BME280;20721;47.402;8.550;2023-05-09T01:59:35;96306;;;15.78;70.52
2711;BME280;20721;47.402;8.550;2023-05-09T02:00:35;96309;;;15.81;70.38
2711;BME280;20721;47.402;8.550;2023-05-09T02:01:35;96309;;;15.82;69.92
2711;BME280;20721;47.402;8.550;2023-05-09T02:02:35;96309;;;15.86;69.85
2711;BME280;20721;47.402;8.550;2023-05-09T02:03:35;96308;;;15.87;69.71
2711;BME280;20721;47.402;8.550;2023-05-09T02:04:35;96311;;;15.89;69.30
2711;BME280;20721;47.402;8.550;2023-05-09T02:05:36;96312;;;15.85;69.32
2711;BME280;20721;47.402;8.550;2023-05-09T02:06:35;96312;;;15.83;69.21
2711;BME280;20721;47.402;8.550;2023-05-09T02:08:35;96312;;;15.84;69.21
2711;BME280;20721;47.402;8.550;2023-05-09T02:11:37;96314;;;15.86;68.94
2711;BME280;20721;47.402;8.550;2023-05-09T02:12:35;96316;;;15.87;68.80
2711;BME280;20721;47.402;8.550;2023-05-09T02:13:37;96317;;;15.85;68.66
2711;BME280;20721;47.402;8.550;2023-05-09T02:14:35;96318;;;15.81;68.82
2711;BME280;20721;47.402;8.550;2023-05-09T02:15:35;96318;;;15.72;68.81
2711;BME280;20721;47.402;8.550;2023-05-09T02:16:35;96318;;;15.61;69.03
2711;BME280;20721;47.402;8.550;2023-05-09T02:17:36;96315;;;15.54;69.06
2711;BME280;20721;47.402;8.550;2023-05-09T02:18:36;96317;;;15.52;69.19
2711;BME280;20721;47.402;8.550;2023-05-09T02:19:35;96312;;;15.51;69.25
2711;BME280;20721;47.402;8.550;2023-05-09T02:20:35;96313;;;15.53;69.22
2711;BME280;20721;47.402;8.550;2023-05-09T02:21:35;96311;;;15.54;69.10
2711;BME280;20721;47.402;8.550;2023-05-09T02:22:36;96313;;;15.56;69.10
2711;BME280;20721;47.402;8.550;2023-05-09T02:23:35;96313;;;15.54;69.01
2711;BME280;20721;47.402;8.550;2023-05-09T02:24:35;96307;;;15.53;69.08
2711;BME280;20721;47.402;8.550;2023-05-09T02:25:35;96312;;;15.54;69.14
2711;BME280;20721;47.402;8.550;2023-05-09T02:26:35;96312;;;15.53;69.13
2711;BME280;20721;47.402;8.550;2023-05-09T02:29:40;96309;;;15.52;69.23
2711;BME280;20721;47.402;8.550;2023-05-09T02:30:37;96305;;;15.51;69.25
2711;BME280;20721;47.402;8.550;2023-05-09T02:31:35;96307;;;15.50;69.16
2711;BME280;20721;47.402;8.550;2023-05-09T02:32:35;96306;;;15.49;69.30
2711;BME280;20721;47.402;8.550;2023-05-09T02:34:36;96298;;;15.52;69.34
2711;BME280;20721;47.402;8.550;2023-05-09T02:35:36;96296;;;15.54;69.12
2711;BME280;20721;47.402;8.550;2023-05-09T02:36:35;96298;;;15.56;69.00
2711;BME280;20721;47.402;8.550;2023-05-09T02:37:35;96297;;;15.55;68.94
2711;BME280;20721;47.402;8.550;2023-05-09T02:38:35;96304;;;15.51;68.98
2711;BME280;20721;47.402;8.550;2023-05-09T02:39:35;96298;;;15.49;69.02
2711;BME280;20721;47.402;8.550;2023-05-09T02:40:35;96299;;;15.48;69.14
2711;BME280;20721;47.402;8.550;2023-05-09T02:41:35;96299;;;15.45;69.29
2711;BME280;20721;47.402;8.550;2023-05-09T02:42:35;96298;;;15.41;69.63
2711;BME280;20721;47.402;8.550;2023-05-09T02:43:35;96300;;;15.38;69.81
2711;BME280;20721;47.402;8.550;2023-05-09T02:44:36;96301;;;15.37;69.88
2711;BME280;20721;47.402;8.550;2023-05-09T02:45:36;96296;;;15.34;69.96
2711;BME280;20721;47.402;8.550;2023-05-09T02:46:35;96298;;;15.36;70.06
2711;BME280;20721;47.402;8.550;2023-05-09T02:47:36;96296;;;15.37;70.09
2711;BME280;20721;47.402;8.550;2023-05-09T02:48:37;96297;;;15.41;69.90
2711;BME280;20721;47.402;8.550;2023-05-09T02:49:35;96298;;;15.42;69.85
2711;BME280;20721;47.402;8.550;2023-05-09T02:50:37;96296;;;15.41;69.85
2711;BME280;20721;47.402;8.550;2023-05-09T02:51:35;96298;;;15.44;69.87
2711;BME280;20721;47.402;8.550;2023-05-09T02:52:36;96298;;;15.46;69.75
2711;BME280;20721;47.402;8.550;2023-05-09T02:53:35;96300;;;15.49;69.83
2711;BME280;20721;47.402;8.550;2023-05-09T02:54:36;96300;;;15.51;69.66
2711;BME280;20721;47.402;8.550;2023-05-09T02:55:35;96301;;;15.55;69.57
2711;BME280;20721;47.402;8.550;2023-05-09T02:56:35;96297;;;15.56;69.41
2711;BME280;20721;47.402;8.550;2023-05-09T02:57:35;96296;;;15.54;69.45
2711;BME280;20721;47.402;8.550;2023-05-09T02:59:35;96297;;;15.53;69.59
2711;BME280;20721;47.402;8.550;2023-05-09T03:00:35;96294;;;15.54;69.51
2711;BME280;20721;47.402;8.550;2023-05-09T03:02:36;96296;;;15.56;69.51
2711;BME280;20721;47.402;8.550;2023-05-09T03:03:36;96296;;;15.59;69.49
2711;BME280;20721;47.402;8.550;2023-05-09T03:04:35;96296;;;15.60;69.35
2711;BME280;20721;47.402;8.550;2023-05-09T03:07:35;96290;;;15.62;69.52
2711;BME280;20721;47.402;8.550;2023-05-09T03:09:35;96290;;;15.59;69.86
2711;BME280;20721;47.402;8.550;2023-05-09T03:10:35;96289;;;15.58;69.76
2711;BME280;20721;47.402;8.550;2023-05-09T03:11:35;96293;;;15.59;69.87
2711;BME280;20721;47.402;8.550;2023-05-09T03:13:35;96295;;;15.57;69.83
2711;BME280;20721;47.402;8.550;2023-05-09T03:14:35;96295;;;15.58;69.79
2711;BME280;20721;47.402;8.550;2023-05-09T03:15:35;96295;;;15.61;69.62
2711;BME280;20721;47.402;8.550;2023-05-09T03:16:35;96292;;;15.63;69.54
2711;BME280;20721;47.402;8.550;2023-05-09T03:17:35;96296;;;15.62;69.78
2711;BME280;20721;47.402;8.550;2023-05-09T03:18:35;96296;;;15.63;69.75
2711;BME280;20721;47.402;8.550;2023-05-09T03:19:35;96292;;;15.64;69.54
2711;BME280;20721;47.402;8.550;2023-05-09T03:21:36;96288;;;15.62;69.30
2711;BME280;20721;47.402;8.550;2023-05-09T03:24:35;96280;;;15.61;69.07
2711;BME280;20721;47.402;8.550;2023-05-09T03:25:37;96285;;;15.59;69.15
2711;BME280;20721;47.402;8.550;2023-05-09T03:29:36;96290;;;15.61;69.39
2711;BME280;20721;47.402;8.550;2023-05-09T03:30:35;96290;;;15.64;69.40
2711;BME280;20721;47.402;8.550;2023-05-09T03:31:36;96292;;;15.67;69.32
2711;BME280;20721;47.402;8.550;2023-05-09T03:32:35;96292;;;15.71;69.29
2711;BME280;20721;47.402;8.550;2023-05-09T03:33:35;96293;;;15.74;69.30
2711;BME280;20721;47.402;8.550;2023-05-09T03:34:35;96290;;;15.76;69.31
2711;BME280;20721;47.402;8.550;2023-05-09T03:35:35;96287;;;15.80;69.28
2711;BME280;20721;47.402;8.550;2023-05-09T03:37:35;96284;;;15.83;69.17
2711;BME280;20721;47.402;8.550;2023-05-09T03:38:35;96279;;;15.86;68.97
2711;BME280;20721;47.402;8.550;2023-05-09T03:40:36;96274;;;15.87;68.67
2711;BME280;20721;47.402;8.550;2023-05-09T03:41:36;96275;;;15.86;68.58
2711;BME280;20721;47.402;8.550;2023-05-09T03:42:35;96275;;;15.85;68.46
2711;BME280;20721;47.402;8.550;2023-05-09T03:43:36;96275;;;15.82;68.49
2711;BME280;20721;47.402;8.550;2023-05-09T03:44:35;96276;;;15.83;68.49
2711;BME280;20721;47.402;8.550;2023-05-09T03:46:36;96278;;;15.85;68.54
2711;BME280;20721;47.402;8.550;2023-05-09T03:47:35;96277;;;15.87;68.65
2711;BME280;20721;47.402;8.550;2023-05-09T03:48:35;96273;;;15.88;68.74
2711;BME280;20721;47.402;8.550;2023-05-09T03:49:36;96276;;;15.89;68.81
2711;BME280;20721;47.402;8.550;2023-05-09T03:50:36;96271;;;15.90;68.86
2711;BME280;20721;47.402;8.550;2023-05-09T03:51:36;96271;;;15.92;68.95
2711;BME280;20721;47.402;8.550;2023-05-09T03:52:36;96274;;;15.95;68.83
2711;BME280;20721;47.402;8.550;2023-05-09T03:53:35;96275;;;15.97;68.73
2711;BME280;20721;47.402;8.550;2023-05-09T03:54:35;96272;;;15.99;68.67
2711;BME280;20721;47.402;8.550;2023-05-09T03:55:35;96276;;;16.02;68.73
2711;BME280;20721;47.402;8.550;2023-05-09T03:56:35;96274;;;16.03;68.74
2711;BME280;20721;47.402;8.550;2023-05-09T03:57:36;96275;;;16.05;68.73
2711;BME280;20721;47.402;8.550;2023-05-09T03:58:36;96272;;;16.08;68.74
2711;BME280;20721;47.402;8.550;2023-05-09T03:59:36;96275;;;16.10;68.51
2711;BME280;20721;47.402;8.550;2023-05-09T04:00:36;96272;;;16.08;68.66
2711;BME280;20721;47.402;8.550;2023-05-09T04:01:38;96269;;;16.10;68.75
2711;BME280;20721;47.402;8.550;2023-05-09T04:03:36;96273;;;16.11;68.84
2711;BME280;20721;47.402;8.550;2023-05-09T04:04:35;96276;;;16.14;68.72
2711;BME280;20721;47.402;8.550;2023-05-09T04:06:36;96282;;;16.16;68.64
2711;BME280;20721;47.402;8.550;2023-05-09T04:07:36;96281;;;16.17;68.67
2711;BME280;20721;47.402;8.550;2023-05-09T04:10:36;96279;;;16.18;68.62
2711;BME280;20721;47.402;8.550;2023-05-09T04:11:36;96283;;;16.20;68.80
2711;BME280;20721;47.402;8.550;2023-05-09T04:12:36;96281;;;16.19;68.69
2711;BME280;20721;47.402;8.550;2023-05-09T04:13:36;96280;;;16.18;68.62
2711;BME280;20721;47.402;8.550;2023-05-09T04:14:36;96276;;;16.15;68.83
2711;BME280;20721;47.402;8.550;2023-05-09T04:15:36;96280;;;16.16;68.90
2711;BME280;20721;47.402;8.550;2023-05-09T04:16:36;96277;;;16.18;68.83
2711;BME280;20721;47.402;8.550;2023-05-09T04:17:36;96277;;;16.21;68.84
2711;BME280;20721;47.402;8.550;2023-05-09T04:21:36;96276;;;16.22;68.89
2711;BME280;20721;47.402;8.550;2023-05-09T04:22:36;96279;;;16.23;68.91
2711;BME280;20721;47.402;8.550;2023-05-09T04:23:37;96279;;;16.25;68.92
2711;BME280;20721;47.402;8.550;2023-05-09T04:24:36;96279;;;16.27;68.84
2711;BME280;20721;47.402;8.550;2023-05-09T04:25:36;96276;;;16.29;68.89
2711;BME280;20721;47.402;8.550;2023-05-09T04:26:37;96273;;;16.30;68.84
2711;BME280;20721;47.402;8.550;2023-05-09T04:27:36;96270;;;16.32;68.94
2711;BME280;20721;47.402;8.550;2023-05-09T04:28:36;96270;;;16.33;68.71
2711;BME280;20721;47.402;8.550;2023-05-09T04:29:36;96275;;;16.34;68.57
2711;BME280;20721;47.402;8.550;2023-05-09T04:30:36;96273;;;16.32;68.26
2711;BME280;20721;47.402;8.550;2023-05-09T04:31:36;96273;;;16.29;68.40
2711;BME280;20721;47.402;8.550;2023-05-09T04:32:36;96276;;;16.26;68.59
2711;BME280;20721;47.402;8.550;2023-05-09T04:33:37;96275;;;16.27;68.69
2711;BME280;20721;47.402;8.550;2023-05-09T04:34:36;96272;;;16.26;68.77
2711;BME280;20721;47.402;8.550;2023-05-09T04:35:36;96275;;;16.23;68.96
2711;BME280;20721;47.402;8.550;2023-05-09T04:36:36;96275;;;16.22;68.91
2711;BME280;20721;47.402;8.550;2023-05-09T04:37:36;96273;;;16.23;68.80
2711;BME280;20721;47.402;8.550;2023-05-09T04:39:38;96279;;;16.22;68.71
2711;BME280;20721;47.402;8.550;2023-05-09T04:40:36;96282;;;16.21;68.63
2711;BME280;20721;47.402;8.550;2023-05-09T04:41:36;96280;;;16.20;68.65
2711;BME280;20721;47.402;8.550;2023-05-09T04:43:36;96280;;;16.18;68.99
2711;BME280;20721;47.402;8.550;2023-05-09T04:44:36;96279;;;16.19;69.01
2711;BME280;20721;47.402;8.550;2023-05-09T04:45:36;96278;;;16.20;69.04
2711;BME280;20721;47.402;8.550;2023-05-09T04:46:36;96278;;;16.24;68.90
2711;BME280;20721;47.402;8.550;2023-05-09T04:47:36;96275;;;16.27;68.84
2711;BME280;20721;47.402;8.550;2023-05-09T04:48:36;96272;;;16.28;68.60
2711;BME280;20721;47.402;8.550;2023-05-09T04:53:36;96262;;;16.26;68.83
2711;BME280;20721;47.402;8.550;2023-05-09T04:54:36;96257;;;16.25;68.90
2711;BME280;20721;47.402;8.550;2023-05-09T04:55:36;96261;;;16.28;68.96
2711;BME280;20721;47.402;8.550;2023-05-09T04:56:36;96265;;;16.31;68.96
2711;BME280;20721;47.402;8.550;2023-05-09T04:57:36;96263;;;16.34;68.95
2711;BME280;20721;47.402;8.550;2023-05-09T04:58:39;96266;;;16.37;68.80
2711;BME280;20721;47.402;8.550;2023-05-09T04:59:36;96270;;;16.40;68.82
2711;BME280;20721;47.402;8.550;2023-05-09T05:00:36;96267;;;16.42;68.75
2711;BME280;20721;47.402;8.550;2023-05-09T05:01:36;96268;;;16.44;68.79
2711;BME280;20721;47.402;8.550;2023-05-09T05:02:36;96269;;;16.47;68.77
2711;BME280;20721;47.402;8.550;2023-05-09T05:03:36;96271;;;16.50;68.73
2711;BME280;20721;47.402;8.550;2023-05-09T05:04:36;96268;;;16.52;68.80
2711;BME280;20721;47.402;8.550;2023-05-09T05:05:40;96268;;;16.53;68.71
2711;BME280;20721;47.402;8.550;2023-05-09T05:06:36;96272;;;16.55;68.63
2711;BME280;20721;47.402;8.550;2023-05-09T05:07:36;96266;;;16.56;68.27
2711;BME280;20721;47.402;8.550;2023-05-09T05:08:36;96265;;;16.58;68.22
2711;BME280;20721;47.402;8.550;2023-05-09T05:09:36;96264;;;16.60;68.28
2711;BME280;20721;47.402;8.550;2023-05-09T05:10:36;96263;;;16.59;68.39
2711;BME280;20721;47.402;8.550;2023-05-09T05:11:36;96263;;;16.60;68.35
2711;BME280;20721;47.402;8.550;2023-05-09T05:12:36;96261;;;16.62;68.35
2711;BME280;20721;47.402;8.550;2023-05-09T05:13:36;96261;;;16.63;68.39
2711;BME280;20721;47.402;8.550;2023-05-09T05:14:36;96262;;;16.64;68.15
2711;BME280;20721;47.402;8.550;2023-05-09T05:15:36;96263;;;16.65;67.96
2711;BME280;20721;47.402;8.550;2023-05-09T05:16:38;96264;;;16.66;68.01
2711;BME280;20721;47.402;8.550;2023-05-09T05:17:36;96264;;;16.68;68.01
2711;BME280;20721;47.402;8.550;2023-05-09T05:18:36;96265;;;16.71;68.10
2711;BME280;20721;47.402;8.550;2023-05-09T05:19:36;96260;;;16.70;67.86
2711;BME280;20721;47.402;8.550;2023-05-09T05:21:36;96261;;;16.72;68.09
2711;BME280;20721;47.402;8.550;2023-05-09T05:23:36;96257;;;16.71;68.09
2711;BME280;20721;47.402;8.550;2023-05-09T05:29:36;96253;;;16.72;67.95
2711;BME280;20721;47.402;8.550;2023-05-09T05:30:36;96247;;;16.73;67.84
2711;BME280;20721;47.402;8.550;2023-05-09T05:31:36;96254;;;16.72;67.80
2711;BME280;20721;47.402;8.550;2023-05-09T05:32:36;96253;;;16.73;67.47
2711;BME280;20721;47.402;8.550;2023-05-09T05:33:36;96254;;;16.71;67.37
2711;BME280;20721;47.402;8.550;2023-05-09T05:34:38;96258;;;16.69;67.61
2711;BME280;20721;47.402;8.550;2023-05-09T05:35:36;96255;;;16.65;67.83
2711;BME280;20721;47.402;8.550;2023-05-09T05:37:36;96252;;;16.64;68.21
2711;BME280;20721;47.402;8.550;2023-05-09T05:38:36;96252;;;16.65;68.07
2711;BME280;20721;47.402;8.550;2023-05-09T05:39:36;96253;;;16.68;67.95
2711;BME280;20721;47.402;8.550;2023-05-09T05:40:36;96255;;;16.69;67.90
2711;BME280;20721;47.402;8.550;2023-05-09T05:41:36;96260;;;16.72;67.88
2711;BME280;20721;47.402;8.550;2023-05-09T05:42:36;96261;;;16.73;67.82
2711;BME280;20721;47.402;8.550;2023-05-09T05:44:36;96268;;;16.76;68.12
2711;BME280;20721;47.402;8.550;2023-05-09T05:45:36;96267;;;16.78;68.02
2711;BME280;20721;47.402;8.550;2023-05-09T05:46:36;96268;;;16.81;67.85
2711;BME280;20721;47.402;8.550;2023-05-09T05:48:36;96264;;;16.82;67.72
2711;BME280;20721;47.402;8.550;2023-05-09T05:49:36;96261;;;16.81;67.74
2711;BME280;20721;47.402;8.550;2023-05-09T05:52:37;96257;;;16.82;67.64
2711;BME280;20721;47.402;8.550;2023-05-09T05:53:39;96258;;;16.85;67.75
2711;BME280;20721;47.402;8.550;2023-05-09T05:54:36;96261;;;16.87;67.89
2711;BME280;20721;47.402;8.550;2023-05-09T05:56:36;96256;;;16.85;67.52
2711;BME280;20721;47.402;8.550;2023-05-09T05:57:37;96256;;;16.84;67.67
2711;BME280;20721;47.402;8.550;2023-05-09T05:59:36;96253;;;16.85;68.02
2711;BME280;20721;47.402;8.550;2023-05-09T06:00:36;96252;;;16.87;67.62
2711;BME280;20721;47.402;8.550;2023-05-09T06:01:36;96251;;;16.88;67.42
2711;BME280;20721;47.402;8.550;2023-05-09T06:02:36;96251;;;16.89;67.66
2711;BME280;20721;47.402;8.550;2023-05-09T06:03:36;96249;;;16.90;67.70
2711;BME280;20721;47.402;8.550;2023-05-09T06:04:36;96248;;;16.92;67.68
2711;BME280;20721;47.402;8.550;2023-05-09T06:05:36;96243;;;16.93;67.81
2711;BME280;20721;47.402;8.550;2023-05-09T06:06:36;96241;;;16.94;67.71
2711;BME280;20721;47.402;8.550;2023-05-09T06:07:36;96239;;;16.95;67.78
2711;BME280;20721;47.402;8.550;2023-05-09T06:08:36;96236;;;16.94;67.86
2711;BME280;20721;47.402;8.550;2023-05-09T06:09:36;96233;;;16.93;67.74
2711;BME280;20721;47.402;8.550;2023-05-09T06:11:36;96236;;;16.96;67.65
2711;BME280;20721;47.402;8.550;2023-05-09T06:13:36;96238;;;16.98;67.47
2711;BME280;20721;47.402;8.550;2023-05-09T06:15:36;96238;;;17.00;67.46
2711;BME280;20721;47.402;8.550;2023-05-09T06:18:36;96236;;;17.02;67.53
2711;BME280;20721;47.402;8.550;2023-05-09T06:19:36;96236;;;17.03;67.43
2711;BME280;20721;47.402;8.550;2023-05-09T06:20:36;96237;;;17.06;67.46
2711;BME280;20721;47.402;8.550;2023-05-09T06:22:36;96236;;;17.08;67.42
2711;BME280;20721;47.402;8.550;2023-05-09T06:23:36;96239;;;17.07;67.08
2711;BME280;20721;47.402;8.550;2023-05-09T06:24:36;96241;;;17.06;67.28
2711;BME280;20721;47.402;8.550;2023-05-09T06:25:36;96241;;;17.07;67.42
2711;BME280;20721;47.402;8.550;2023-05-09T06:26:36;96242;;;17.10;67.23
2711;BME280;20721;47.402;8.550;2023-05-09T06:27:36;96242;;;17.13;67.28
2711;BME280;20721;47.402;8.550;2023-05-09T06:28:36;96241;;;17.16;67.41
2711;BME280;20721;47.402;8.550;2023-05-09T06:29:36;96238;;;17.19;67.39
2711;BME280;20721;47.402;8.550;2023-05-09T06:30:39;96236;;;17.20;67.57
2711;BME280;20721;47.402;8.550;2023-05-09T06:31:37;96234;;;17.24;67.17
2711;BME280;20721;47.402;8.550;2023-05-09T06:32:36;96234;;;17.28;66.97
2711;BME280;20721;47.402;8.550;2023-05-09T06:33:36;96232;;;17.31;67.21
2711;BME280;20721;47.402;8.550;2023-05-09T06:34:36;96232;;;17.35;67.12
2711;BME280;20721;47.402;8.550;2023-05-09T06:35:36;96231;;;17.40;66.89
2711;BME280;20721;47.402;8.550;2023-05-09T06:36:36;96232;;;17.43;66.89
2711;BME280;20721;47.402;8.550;2023-05-09T06:37:36;96230;;;17.46;66.59
2711;BME280;20721;47.402;8.550;2023-05-09T06:38:36;96229;;;17.48;65.94
2711;BME280;20721;47.402;8.550;2023-05-09T06:39:36;96224;;;17.49;65.80
2711;BME280;20721;47.402;8.550;2023-05-09T06:40:36;96223;;;17.51;65.88
2711;BME280;20721;47.402;8.550;2023-05-09T06:41:36;96223;;;17.55;66.05
2711;BME280;20721;47.402;8.550;2023-05-09T06:42:36;96219;;;17.60;65.77
2711;BME280;20721;47.402;8.550;2023-05-09T06:43:36;96217;;;17.62;65.36
2711;BME280;20721;47.402;8.550;2023-05-09T06:44:36;96217;;;17.58;64.81
2711;BME280;20721;47.402;8.550;2023-05-09T06:45:36;96219;;;17.53;65.57
2711;BME280;20721;47.402;8.550;2023-05-09T06:46:36;96215;;;17.48;65.62
2711;BME280;20721;47.402;8.550;2023-05-09T06:47:36;96209;;;17.47;65.85
2711;BME280;20721;47.402;8.550;2023-05-09T06:48:36;96210;;;17.48;65.62
2711;BME280;20721;47.402;8.550;2023-05-09T06:49:36;96212;;;17.45;65.46
2711;BME280;20721;47.402;8.550;2023-05-09T06:50:36;96209;;;17.37;65.87
2711;BME280;20721;47.402;8.550;2023-05-09T06:51:36;96205;;;17.38;65.91
2711;BME280;20721;47.402;8.550;2023-05-09T06:52:36;96207;;;17.43;65.91
2711;BME280;20721;47.402;8.550;2023-05-09T06:53:36;96208;;;17.49;66.02
2711;BME280;20721;47.402;8.550;2023-05-09T06:54:36;96207;;;17.48;65.61
2711;BME280;20721;47.402;8.550;2023-05-09T06:55:36;96207;;;17.51;65.01
2711;BME280;20721;47.402;8.550;2023-05-09T06:56:36;96205;;;17.57;64.94
2711;BME280;20721;47.402;8.550;2023-05-09T06:57:37;96206;;;17.62;65.12
2711;BME280;20721;47.402;8.550;2023-05-09T06:58:36;96207;;;17.68;65.20